sensor_id;sensor_type;location;lat;lon;timestamp;P1;durP1;ratioP1;P2;durP2;ratioP2
44925;SDS011;30662;51.210;7.656;2023-05-10T00:01:09;5.00;;;2.58;;
44925;SDS011;30662;51.210;7.656;2023-05-10T00:03:35;2.92;;;2.70;;
44925;SDS011;30662;51.210;7.656;2023-05-10T00:06:01;4.05;;;2.58;;
44925;SDS011;30662;51.210;7.656;2023-05-10T00:08:27;2.70;;;2.50;;
44925;SDS011;30662;51.210;7.656;2023-05-10T00:10:53;2.30;;;2.20;;
44925;SDS011;30662;51.210;7.656;2023-05-10T00:13:19;5.20;;;2.58;;
44925;SDS011;30662;51.210;7.656;2023-05-10T00:15:44;2.78;;;2.58;;
44925;SDS011;30662;51.210;7.656;2023-05-10T00:18:10;2.20;;;2.10;;
44925;SDS011;30662;51.210;7.656;2023-05-10T00:20:36;2.38;;;2.25;;
44925;SDS011;30662;51.210;7.656;2023-05-10T00:23:02;2.25;;;2.15;;
44925;SDS011;30662;51.210;7.656;2023-05-10T00:25:28;2.55;;;2.40;;
44925;SDS011;30662;51.210;7.656;2023-05-10T00:27:54;3.17;;;2.10;;
44925;SDS011;30662;51.210;7.656;2023-05-10T00:30:22;2.83;;;2.63;;
44925;SDS011;30662;51.210;7.656;2023-05-10T00:32:49;2.20;;;2.10;;
44925;SDS011;30662;51.210;7.656;2023-05-10T00:35:15;4.25;;;2.28;;
44925;SDS011;30662;51.210;7.656;2023-05-10T00:37:41;2.55;;;2.35;;
44925;SDS011;30662;51.210;7.656;2023-05-10T00:40:07;1.98;;;1.88;;
44925;SDS011;30662;51.210;7.656;2023-05-10T00:42:36;2.45;;;2.25;;
44925;SDS011;30662;51.210;7.656;2023-05-10T00:45:02;2.42;;;2.22;;
44925;SDS011;30662;51.210;7.656;2023-05-10T00:47:29;2.28;;;2.17;;
44925;SDS011;30662;51.210;7.656;2023-05-10T00:49:55;2.25;;;2.10;;
44925;SDS011;30662;51.210;7.656;2023-05-10T00:52:21;2.83;;;2.63;;
44925;SDS011;30662;51.210;7.656;2023-05-10T00:54:51;2.22;;;2.13;;
44925;SDS011;30662;51.210;7.656;2023-05-10T00:57:18;2.00;;;1.90;;
44925;SDS011;30662;51.210;7.656;2023-05-10T00:59:44;1.90;;;1.80;;
44925;SDS011;30662;51.210;7.656;2023-05-10T01:02:09;2.50;;;2.30;;
44925;SDS011;30662;51.210;7.656;2023-05-10T01:04:36;2.83;;;1.75;;
44925;SDS011;30662;51.210;7.656;2023-05-10T01:07:03;2.20;;;1.73;;
44925;SDS011;30662;51.210;7.656;2023-05-10T01:09:29;2.15;;;2.05;;
44925;SDS011;30662;51.210;7.656;2023-05-10T01:11:55;2.38;;;1.85;;
44925;SDS011;30662;51.210;7.656;2023-05-10T01:14:22;2.55;;;1.98;;
44925;SDS011;30662;51.210;7.656;2023-05-10T01:16:49;3.20;;;1.85;;
44925;SDS011;30662;51.210;7.656;2023-05-10T01:19:19;2.95;;;2.03;;
44925;SDS011;30662;51.210;7.656;2023-05-10T01:21:58;2.15;;;2.00;;
44925;SDS011;30662;51.210;7.656;2023-05-10T01:27:14;2.53;;;1.60;;
44925;SDS011;30662;51.210;7.656;2023-05-10T01:30:34;1.58;;;1.48;;
44925;SDS011;30662;51.210;7.656;2023-05-10T01:33:21;2.88;;;2.28;;
44925;SDS011;30662;51.210;7.656;2023-05-10T01:36:19;2.70;;;2.50;;
44925;SDS011;30662;51.210;7.656;2023-05-10T01:39:07;2.83;;;2.63;;
44925;SDS011;30662;51.210;7.656;2023-05-10T01:42:14;2.88;;;2.65;;
44925;SDS011;30662;51.210;7.656;2023-05-10T01:44:49;2.63;;;2.42;;
44925;SDS011;30662;51.210;7.656;2023-05-10T01:47:43;2.88;;;2.67;;
44925;SDS011;30662;51.210;7.656;2023-05-10T01:50:10;3.13;;;2.92;;
44925;SDS011;30662;51.210;7.656;2023-05-10T01:52:44;3.30;;;3.00;;
44925;SDS011;30662;51.210;7.656;2023-05-10T01:55:15;3.40;;;3.10;;
44925;SDS011;30662;51.210;7.656;2023-05-10T01:57:43;3.75;;;3.38;;
44925;SDS011;30662;51.210;7.656;2023-05-10T02:00:11;4.03;;;3.70;;
44925;SDS011;30662;51.210;7.656;2023-05-10T02:02:40;3.28;;;3.05;;
44925;SDS011;30662;51.210;7.656;2023-05-10T02:05:11;3.38;;;3.15;;
44925;SDS011;30662;51.210;7.656;2023-05-10T02:07:39;4.13;;;2.83;;
44925;SDS011;30662;51.210;7.656;2023-05-10T02:10:07;3.47;;;3.17;;
44925;SDS011;30662;51.210;7.656;2023-05-10T02:12:36;3.92;;;3.63;;
44925;SDS011;30662;51.210;7.656;2023-05-10T02:15:05;5.75;;;3.78;;
44925;SDS011;30662;51.210;7.656;2023-05-10T02:17:35;4.65;;;4.25;;
44925;SDS011;30662;51.210;7.656;2023-05-10T02:20:03;4.47;;;4.07;;
44925;SDS011;30662;51.210;7.656;2023-05-10T02:22:31;5.47;;;4.30;;
44925;SDS011;30662;51.210;7.656;2023-05-10T02:24:59;4.20;;;3.90;;
44925;SDS011;30662;51.210;7.656;2023-05-10T02:27:27;5.22;;;4.82;;
44925;SDS011;30662;51.210;7.656;2023-05-10T02:29:54;5.00;;;4.60;;
44925;SDS011;30662;51.210;7.656;2023-05-10T02:32:22;4.85;;;4.38;;
44925;SDS011;30662;51.210;7.656;2023-05-10T02:34:50;5.07;;;4.57;;
44925;SDS011;30662;51.210;7.656;2023-05-10T02:37:18;5.68;;;5.18;;
44925;SDS011;30662;51.210;7.656;2023-05-10T02:39:46;5.45;;;4.95;;
44925;SDS011;30662;51.210;7.656;2023-05-10T02:42:14;5.35;;;4.78;;
44925;SDS011;30662;51.210;7.656;2023-05-10T02:44:43;5.18;;;4.78;;
44925;SDS011;30662;51.210;7.656;2023-05-10T02:47:12;5.40;;;4.90;;
44925;SDS011;30662;51.210;7.656;2023-05-10T02:49:38;5.63;;;5.13;;
44925;SDS011;30662;51.210;7.656;2023-05-10T02:52:04;5.05;;;4.65;;
44925;SDS011;30662;51.210;7.656;2023-05-10T02:54:43;5.50;;;5.10;;
44925;SDS011;30662;51.210;7.656;2023-05-10T02:57:11;5.65;;;5.15;;
44925;SDS011;30662;51.210;7.656;2023-05-10T02:59:44;5.38;;;4.93;;
44925;SDS011;30662;51.210;7.656;2023-05-10T03:02:12;5.75;;;5.18;;
44925;SDS011;30662;51.210;7.656;2023-05-10T03:04:38;5.80;;;5.30;;
44925;SDS011;30662;51.210;7.656;2023-05-10T03:07:04;6.40;;;5.63;;
44925;SDS011;30662;51.210;7.656;2023-05-10T03:09:30;6.38;;;5.88;;
44925;SDS011;30662;51.210;7.656;2023-05-10T03:12:03;6.78;;;6.18;;
44925;SDS011;30662;51.210;7.656;2023-05-10T03:20:03;6.70;;;5.75;;
44925;SDS011;30662;51.210;7.656;2023-05-10T03:22:45;6.20;;;5.57;;
44925;SDS011;30662;51.210;7.656;2023-05-10T03:25:15;5.85;;;5.25;;
44925;SDS011;30662;51.210;7.656;2023-05-10T03:27:43;5.80;;;5.30;;
44925;SDS011;30662;51.210;7.656;2023-05-10T03:30:11;7.10;;;5.28;;
44925;SDS011;30662;51.210;7.656;2023-05-10T03:32:38;5.85;;;5.35;;
44925;SDS011;30662;51.210;7.656;2023-05-10T03:35:10;7.63;;;5.22;;
44925;SDS011;30662;51.210;7.656;2023-05-10T03:37:37;7.15;;;6.47;;
44925;SDS011;30662;51.210;7.656;2023-05-10T03:40:03;7.68;;;6.40;;
44925;SDS011;30662;51.210;7.656;2023-05-10T03:42:30;5.88;;;5.38;;
44925;SDS011;30662;51.210;7.656;2023-05-10T03:44:56;7.40;;;6.32;;
44925;SDS011;30662;51.210;7.656;2023-05-10T03:47:21;7.68;;;6.88;;
44925;SDS011;30662;51.210;7.656;2023-05-10T03:49:47;7.60;;;6.90;;
44925;SDS011;30662;51.210;7.656;2023-05-10T03:52:13;9.02;;;7.22;;
44925;SDS011;30662;51.210;7.656;2023-05-10T03:54:39;8.95;;;8.13;;
44925;SDS011;30662;51.210;7.656;2023-05-10T03:57:05;9.30;;;8.40;;
44925;SDS011;30662;51.210;7.656;2023-05-10T03:59:30;9.95;;;9.05;;
44925;SDS011;30662;51.210;7.656;2023-05-10T04:01:56;9.63;;;8.73;;
44925;SDS011;30662;51.210;7.656;2023-05-10T04:04:22;9.80;;;8.85;;
44925;SDS011;30662;51.210;7.656;2023-05-10T04:06:49;11.02;;;9.88;;
44925;SDS011;30662;51.210;7.656;2023-05-10T04:09:15;10.55;;;9.48;;
44925;SDS011;30662;51.210;7.656;2023-05-10T04:11:42;9.75;;;8.85;;
44925;SDS011;30662;51.210;7.656;2023-05-10T04:14:08;13.80;;;9.70;;
44925;SDS011;30662;51.210;7.656;2023-05-10T04:16:34;10.77;;;9.75;;
44925;SDS011;30662;51.210;7.656;2023-05-10T04:19:00;9.40;;;8.55;;
44925;SDS011;30662;51.210;7.656;2023-05-10T04:21:26;9.70;;;8.82;;
44925;SDS011;30662;51.210;7.656;2023-05-10T04:23:52;9.10;;;8.30;;
44925;SDS011;30662;51.210;7.656;2023-05-10T04:26:17;9.77;;;8.88;;
44925;SDS011;30662;51.210;7.656;2023-05-10T04:28:43;9.82;;;8.82;;
44925;SDS011;30662;51.210;7.656;2023-05-10T04:31:09;10.10;;;9.20;;
44925;SDS011;30662;51.210;7.656;2023-05-10T04:33:35;10.93;;;9.93;;
44925;SDS011;30662;51.210;7.656;2023-05-10T04:36:02;11.38;;;10.18;;
44925;SDS011;30662;51.210;7.656;2023-05-10T04:38:29;11.38;;;10.25;;
44925;SDS011;30662;51.210;7.656;2023-05-10T04:41:03;12.98;;;11.27;;
44925;SDS011;30662;51.210;7.656;2023-05-10T04:43:29;11.00;;;9.90;;
44925;SDS011;30662;51.210;7.656;2023-05-10T04:45:56;11.82;;;10.70;;
44925;SDS011;30662;51.210;7.656;2023-05-10T04:48:22;11.82;;;10.73;;
44925;SDS011;30662;51.210;7.656;2023-05-10T04:50:49;12.15;;;11.05;;
44925;SDS011;30662;51.210;7.656;2023-05-10T04:53:14;13.50;;;12.32;;
44925;SDS011;30662;51.210;7.656;2023-05-10T04:55:41;14.65;;;11.68;;
44925;SDS011;30662;51.210;7.656;2023-05-10T04:58:07;13.80;;;12.57;;
44925;SDS011;30662;51.210;7.656;2023-05-10T05:00:33;15.15;;;12.50;;
44925;SDS011;30662;51.210;7.656;2023-05-10T05:02:59;15.57;;;13.27;;
44925;SDS011;30662;51.210;7.656;2023-05-10T05:05:25;13.35;;;12.00;;
44925;SDS011;30662;51.210;7.656;2023-05-10T05:07:51;12.93;;;11.73;;
44925;SDS011;30662;51.210;7.656;2023-05-10T05:10:17;13.18;;;11.85;;
44925;SDS011;30662;51.210;7.656;2023-05-10T05:12:43;17.00;;;11.43;;
44925;SDS011;30662;51.210;7.656;2023-05-10T05:15:10;12.23;;;11.05;;
44925;SDS011;30662;51.210;7.656;2023-05-10T05:17:36;12.75;;;11.48;;
44925;SDS011;30662;51.210;7.656;2023-05-10T05:20:02;17.10;;;13.48;;
44925;SDS011;30662;51.210;7.656;2023-05-10T05:22:28;13.80;;;12.13;;
44925;SDS011;30662;51.210;7.656;2023-05-10T05:24:54;15.23;;;12.38;;
44925;SDS011;30662;51.210;7.656;2023-05-10T05:27:20;14.15;;;12.73;;
44925;SDS011;30662;51.210;7.656;2023-05-10T05:29:52;14.55;;;11.82;;
44925;SDS011;30662;51.210;7.656;2023-05-10T05:32:22;16.70;;;13.45;;
44925;SDS011;30662;51.210;7.656;2023-05-10T05:34:49;13.43;;;11.98;;
44925;SDS011;30662;51.210;7.656;2023-05-10T05:37:15;14.50;;;12.07;;
44925;SDS011;30662;51.210;7.656;2023-05-10T05:39:42;14.57;;;11.77;;
44925;SDS011;30662;51.210;7.656;2023-05-10T05:42:09;17.77;;;13.52;;
44925;SDS011;30662;51.210;7.656;2023-05-10T05:44:35;16.05;;;11.23;;
44925;SDS011;30662;51.210;7.656;2023-05-10T05:47:01;13.63;;;11.75;;
44925;SDS011;30662;51.210;7.656;2023-05-10T05:49:27;17.20;;;12.98;;
44925;SDS011;30662;51.210;7.656;2023-05-10T05:51:53;14.82;;;12.43;;
44925;SDS011;30662;51.210;7.656;2023-05-10T05:54:19;16.83;;;13.82;;
44925;SDS011;30662;51.210;7.656;2023-05-10T05:56:44;15.93;;;13.90;;
44925;SDS011;30662;51.210;7.656;2023-05-10T05:59:11;19.98;;;13.70;;
44925;SDS011;30662;51.210;7.656;2023-05-10T06:01:37;18.23;;;14.95;;
44925;SDS011;30662;51.210;7.656;2023-05-10T06:04:02;16.90;;;14.48;;
44925;SDS011;30662;51.210;7.656;2023-05-10T06:06:28;17.30;;;14.07;;
44925;SDS011;30662;51.210;7.656;2023-05-10T06:08:54;16.40;;;14.68;;
44925;SDS011;30662;51.210;7.656;2023-05-10T06:11:20;18.83;;;15.23;;
44925;SDS011;30662;51.210;7.656;2023-05-10T06:13:47;17.08;;;13.63;;
44925;SDS011;30662;51.210;7.656;2023-05-10T06:16:13;18.02;;;15.05;;
44925;SDS011;30662;51.210;7.656;2023-05-10T06:18:39;17.65;;;14.70;;
44925;SDS011;30662;51.210;7.656;2023-05-10T06:21:05;21.80;;;17.35;;
44925;SDS011;30662;51.210;7.656;2023-05-10T06:23:31;24.80;;;17.23;;
44925;SDS011;30662;51.210;7.656;2023-05-10T06:25:57;24.63;;;16.58;;
44925;SDS011;30662;51.210;7.656;2023-05-10T06:28:23;23.23;;;16.60;;
44925;SDS011;30662;51.210;7.656;2023-05-10T06:30:49;25.83;;;15.90;;
44925;SDS011;30662;51.210;7.656;2023-05-10T06:33:15;27.65;;;18.10;;
44925;SDS011;30662;51.210;7.656;2023-05-10T06:35:41;19.38;;;15.75;;
44925;SDS011;30662;51.210;7.656;2023-05-10T06:38:07;19.45;;;16.27;;
44925;SDS011;30662;51.210;7.656;2023-05-10T06:40:33;18.67;;;15.98;;
44925;SDS011;30662;51.210;7.656;2023-05-10T06:42:59;19.50;;;16.63;;
44925;SDS011;30662;51.210;7.656;2023-05-10T06:45:25;20.98;;;15.90;;
44925;SDS011;30662;51.210;7.656;2023-05-10T06:47:50;21.02;;;16.05;;
44925;SDS011;30662;51.210;7.656;2023-05-10T06:50:16;16.30;;;12.35;;
44925;SDS011;30662;51.210;7.656;2023-05-10T06:52:42;15.15;;;12.80;;
44925;SDS011;30662;51.210;7.656;2023-05-10T06:55:09;13.60;;;11.43;;
44925;SDS011;30662;51.210;7.656;2023-05-10T06:57:35;11.50;;;10.02;;
44925;SDS011;30662;51.210;7.656;2023-05-10T07:00:02;13.70;;;12.05;;
44925;SDS011;30662;51.210;7.656;2023-05-10T07:02:29;13.20;;;11.65;;
44925;SDS011;30662;51.210;7.656;2023-05-10T07:04:55;14.60;;;12.00;;
44925;SDS011;30662;51.210;7.656;2023-05-10T07:07:22;15.38;;;12.98;;
44925;SDS011;30662;51.210;7.656;2023-05-10T07:09:48;16.13;;;13.10;;
44925;SDS011;30662;51.210;7.656;2023-05-10T07:12:15;19.58;;;13.25;;
44925;SDS011;30662;51.210;7.656;2023-05-10T07:14:41;16.40;;;14.30;;
44925;SDS011;30662;51.210;7.656;2023-05-10T07:17:07;17.85;;;14.65;;
44925;SDS011;30662;51.210;7.656;2023-05-10T07:19:33;18.80;;;14.73;;
44925;SDS011;30662;51.210;7.656;2023-05-10T07:21:59;20.38;;;15.57;;
44925;SDS011;30662;51.210;7.656;2023-05-10T07:24:25;17.42;;;13.95;;
44925;SDS011;30662;51.210;7.656;2023-05-10T07:26:51;18.83;;;14.73;;
44925;SDS011;30662;51.210;7.656;2023-05-10T07:29:17;20.85;;;16.30;;
44925;SDS011;30662;51.210;7.656;2023-05-10T07:31:43;19.10;;;16.42;;
44925;SDS011;30662;51.210;7.656;2023-05-10T07:34:09;19.58;;;14.27;;
44925;SDS011;30662;51.210;7.656;2023-05-10T07:36:35;21.60;;;16.85;;
44925;SDS011;30662;51.210;7.656;2023-05-10T07:39:01;19.60;;;15.13;;
44925;SDS011;30662;51.210;7.656;2023-05-10T07:41:27;20.90;;;16.73;;
44925;SDS011;30662;51.210;7.656;2023-05-10T07:43:53;21.05;;;17.63;;
44925;SDS011;30662;51.210;7.656;2023-05-10T07:46:19;23.27;;;19.05;;
44925;SDS011;30662;51.210;7.656;2023-05-10T07:48:45;23.58;;;19.00;;
44925;SDS011;30662;51.210;7.656;2023-05-10T07:51:11;25.25;;;18.45;;
44925;SDS011;30662;51.210;7.656;2023-05-10T07:53:37;26.48;;;18.98;;
44925;SDS011;30662;51.210;7.656;2023-05-10T07:56:36;23.50;;;19.02;;
44925;SDS011;30662;51.210;7.656;2023-05-10T07:58:57;21.95;;;17.48;;
44925;SDS011;30662;51.210;7.656;2023-05-10T08:01:24;26.13;;;18.08;;
44925;SDS011;30662;51.210;7.656;2023-05-10T08:03:51;23.73;;;18.13;;
44925;SDS011;30662;51.210;7.656;2023-05-10T08:06:19;20.98;;;16.88;;
44925;SDS011;30662;51.210;7.656;2023-05-10T08:08:46;21.77;;;16.52;;
44925;SDS011;30662;51.210;7.656;2023-05-10T08:11:17;18.05;;;14.20;;
44925;SDS011;30662;51.210;7.656;2023-05-10T08:13:44;17.88;;;14.25;;
44925;SDS011;30662;51.210;7.656;2023-05-10T08:16:10;18.83;;;13.80;;
44925;SDS011;30662;51.210;7.656;2023-05-10T08:18:37;19.85;;;13.85;;
44925;SDS011;30662;51.210;7.656;2023-05-10T08:21:03;18.25;;;13.77;;
44925;SDS011;30662;51.210;7.656;2023-05-10T08:23:29;22.20;;;13.88;;
44925;SDS011;30662;51.210;7.656;2023-05-10T08:25:55;13.88;;;12.23;;
44925;SDS011;30662;51.210;7.656;2023-05-10T08:28:21;14.45;;;13.00;;
44925;SDS011;30662;51.210;7.656;2023-05-10T08:30:51;15.32;;;12.32;;
44925;SDS011;30662;51.210;7.656;2023-05-10T08:33:17;15.40;;;12.07;;
44925;SDS011;30662;51.210;7.656;2023-05-10T08:35:44;19.58;;;13.90;;
44925;SDS011;30662;51.210;7.656;2023-05-10T08:38:10;18.50;;;12.40;;
44925;SDS011;30662;51.210;7.656;2023-05-10T08:40:42;20.88;;;13.57;;
44925;SDS011;30662;51.210;7.656;2023-05-10T08:43:10;16.90;;;12.35;;
44925;SDS011;30662;51.210;7.656;2023-05-10T08:45:41;15.75;;;13.07;;
44925;SDS011;30662;51.210;7.656;2023-05-10T08:48:10;16.65;;;11.95;;
44925;SDS011;30662;51.210;7.656;2023-05-10T08:50:39;19.40;;;13.13;;
44925;SDS011;30662;51.210;7.656;2023-05-10T08:53:08;15.07;;;13.48;;
44925;SDS011;30662;51.210;7.656;2023-05-10T08:55:38;15.38;;;11.73;;
44925;SDS011;30662;51.210;7.656;2023-05-10T08:58:07;16.75;;;12.63;;
44925;SDS011;30662;51.210;7.656;2023-05-10T09:00:34;14.90;;;11.82;;
44925;SDS011;30662;51.210;7.656;2023-05-10T09:03:01;21.15;;;12.77;;
44925;SDS011;30662;51.210;7.656;2023-05-10T09:05:28;18.70;;;12.65;;
44925;SDS011;30662;51.210;7.656;2023-05-10T09:07:54;14.10;;;10.93;;
44925;SDS011;30662;51.210;7.656;2023-05-10T09:10:20;20.25;;;10.57;;
44925;SDS011;30662;51.210;7.656;2023-05-10T09:12:47;14.20;;;11.63;;
44925;SDS011;30662;51.210;7.656;2023-05-10T09:15:16;17.55;;;11.85;;
44925;SDS011;30662;51.210;7.656;2023-05-10T09:17:45;12.73;;;11.18;;
44925;SDS011;30662;51.210;7.656;2023-05-10T09:20:11;18.08;;;12.52;;
44925;SDS011;30662;51.210;7.656;2023-05-10T09:22:37;12.13;;;10.90;;
44925;SDS011;30662;51.210;7.656;2023-05-10T09:25:04;18.08;;;11.85;;
44925;SDS011;30662;51.210;7.656;2023-05-10T09:27:38;15.50;;;11.07;;
44925;SDS011;30662;51.210;7.656;2023-05-10T09:30:06;12.88;;;10.52;;
44925;SDS011;30662;51.210;7.656;2023-05-10T09:32:40;15.98;;;9.98;;
44925;SDS011;30662;51.210;7.656;2023-05-10T09:35:08;12.57;;;10.43;;
44925;SDS011;30662;51.210;7.656;2023-05-10T09:37:35;12.25;;;10.40;;
44925;SDS011;30662;51.210;7.656;2023-05-10T09:40:03;15.35;;;11.35;;
44925;SDS011;30662;51.210;7.656;2023-05-10T09:42:30;18.05;;;11.40;;
44925;SDS011;30662;51.210;7.656;2023-05-10T09:45:00;13.10;;;10.18;;
44925;SDS011;30662;51.210;7.656;2023-05-10T09:47:31;15.60;;;10.93;;
44925;SDS011;30662;51.210;7.656;2023-05-10T09:50:02;13.60;;;10.40;;
44925;SDS011;30662;51.210;7.656;2023-05-10T09:52:30;11.38;;;8.65;;
44925;SDS011;30662;51.210;7.656;2023-05-10T09:55:10;11.05;;;8.95;;
44925;SDS011;30662;51.210;7.656;2023-05-10T09:57:36;11.18;;;7.82;;
44925;SDS011;30662;51.210;7.656;2023-05-10T10:00:02;9.13;;;6.78;;
44925;SDS011;30662;51.210;7.656;2023-05-10T10:02:31;11.10;;;7.10;;
44925;SDS011;30662;51.210;7.656;2023-05-10T10:04:58;9.40;;;7.20;;
44925;SDS011;30662;51.210;7.656;2023-05-10T10:07:26;8.65;;;6.78;;
44925;SDS011;30662;51.210;7.656;2023-05-10T10:09:53;10.35;;;7.50;;
44925;SDS011;30662;51.210;7.656;2023-05-10T10:12:19;8.23;;;7.30;;
44925;SDS011;30662;51.210;7.656;2023-05-10T10:14:46;7.55;;;6.72;;
44925;SDS011;30662;51.210;7.656;2023-05-10T10:17:13;7.50;;;5.50;;
44925;SDS011;30662;51.210;7.656;2023-05-10T10:19:40;6.32;;;5.20;;
44925;SDS011;30662;51.210;7.656;2023-05-10T10:22:07;8.90;;;6.55;;
44925;SDS011;30662;51.210;7.656;2023-05-10T10:24:38;6.70;;;6.00;;
44925;SDS011;30662;51.210;7.656;2023-05-10T10:27:21;8.00;;;5.32;;
44925;SDS011;30662;51.210;7.656;2023-05-10T10:30:00;9.73;;;6.90;;
44925;SDS011;30662;51.210;7.656;2023-05-10T10:35:19;9.98;;;5.63;;
44925;SDS011;30662;51.210;7.656;2023-05-10T10:37:46;8.50;;;6.78;;
44925;SDS011;30662;51.210;7.656;2023-05-10T10:40:36;8.48;;;5.57;;
44925;SDS011;30662;51.210;7.656;2023-05-10T10:46:10;9.07;;;6.82;;
44925;SDS011;30662;51.210;7.656;2023-05-10T10:49:19;7.18;;;6.00;;
44925;SDS011;30662;51.210;7.656;2023-05-10T10:51:40;7.32;;;6.50;;
44925;SDS011;30662;51.210;7.656;2023-05-10T10:54:38;8.27;;;6.82;;
44925;SDS011;30662;51.210;7.656;2023-05-10T10:57:14;9.15;;;7.28;;
44925;SDS011;30662;51.210;7.656;2023-05-10T10:59:43;11.85;;;8.20;;
44925;SDS011;30662;51.210;7.656;2023-05-10T11:02:09;10.27;;;7.93;;
44925;SDS011;30662;51.210;7.656;2023-05-10T11:04:42;8.23;;;6.68;;
44925;SDS011;30662;51.210;7.656;2023-05-10T11:07:18;10.00;;;7.97;;
44925;SDS011;30662;51.210;7.656;2023-05-10T11:09:46;11.07;;;8.15;;
44925;SDS011;30662;51.210;7.656;2023-05-10T11:12:13;11.50;;;9.13;;
44925;SDS011;30662;51.210;7.656;2023-05-10T11:14:39;12.18;;;9.95;;
44925;SDS011;30662;51.210;7.656;2023-05-10T11:17:24;12.95;;;10.02;;
44925;SDS011;30662;51.210;7.656;2023-05-10T11:20:08;14.52;;;12.48;;
44925;SDS011;30662;51.210;7.656;2023-05-10T11:22:49;17.08;;;12.02;;
44925;SDS011;30662;51.210;7.656;2023-05-10T11:25:17;14.45;;;11.88;;
44925;SDS011;30662;51.210;7.656;2023-05-10T11:27:43;17.35;;;13.45;;
44925;SDS011;30662;51.210;7.656;2023-05-10T11:30:10;18.15;;;13.57;;
44925;SDS011;30662;51.210;7.656;2023-05-10T11:32:37;18.90;;;13.60;;
44925;SDS011;30662;51.210;7.656;2023-05-10T11:35:07;18.45;;;14.65;;
44925;SDS011;30662;51.210;7.656;2023-05-10T11:37:38;18.30;;;13.95;;
44925;SDS011;30662;51.210;7.656;2023-05-10T11:40:08;18.45;;;14.90;;
44925;SDS011;30662;51.210;7.656;2023-05-10T11:42:38;22.40;;;17.00;;
44925;SDS011;30662;51.210;7.656;2023-05-10T11:45:04;21.58;;;16.13;;
44925;SDS011;30662;51.210;7.656;2023-05-10T11:47:31;26.10;;;18.88;;
44925;SDS011;30662;51.210;7.656;2023-05-10T11:49:57;25.40;;;19.70;;
44925;SDS011;30662;51.210;7.656;2023-05-10T11:52:23;28.63;;;21.60;;
44925;SDS011;30662;51.210;7.656;2023-05-10T11:54:53;31.17;;;22.58;;
44925;SDS011;30662;51.210;7.656;2023-05-10T11:57:19;35.30;;;21.08;;
44925;SDS011;30662;51.210;7.656;2023-05-10T11:59:46;29.58;;;21.67;;
44925;SDS011;30662;51.210;7.656;2023-05-10T12:02:15;30.38;;;22.23;;
44925;SDS011;30662;51.210;7.656;2023-05-10T12:04:41;30.38;;;21.95;;
44925;SDS011;30662;51.210;7.656;2023-05-10T12:07:07;31.10;;;21.30;;
44925;SDS011;30662;51.210;7.656;2023-05-10T12:09:34;34.40;;;21.95;;
44925;SDS011;30662;51.210;7.656;2023-05-10T12:12:09;29.65;;;20.83;;
44925;SDS011;30662;51.210;7.656;2023-05-10T12:14:36;30.45;;;20.98;;
44925;SDS011;30662;51.210;7.656;2023-05-10T12:17:02;28.05;;;19.10;;
44925;SDS011;30662;51.210;7.656;2023-05-10T12:19:28;27.13;;;19.35;;
44925;SDS011;30662;51.210;7.656;2023-05-10T12:22:04;23.98;;;18.80;;
44925;SDS011;30662;51.210;7.656;2023-05-10T12:24:31;26.02;;;20.27;;
44925;SDS011;30662;51.210;7.656;2023-05-10T12:27:05;28.15;;;19.83;;
44925;SDS011;30662;51.210;7.656;2023-05-10T12:29:33;30.88;;;21.25;;
44925;SDS011;30662;51.210;7.656;2023-05-10T12:31:59;29.70;;;21.77;;
44925;SDS011;30662;51.210;7.656;2023-05-10T12:34:35;26.90;;;20.10;;
44925;SDS011;30662;51.210;7.656;2023-05-10T12:37:03;25.42;;;19.63;;
44925;SDS011;30662;51.210;7.656;2023-05-10T12:39:42;22.50;;;18.00;;
44925;SDS011;30662;51.210;7.656;2023-05-10T12:42:09;31.13;;;18.83;;
44925;SDS011;30662;51.210;7.656;2023-05-10T12:44:36;23.90;;;17.30;;
44925;SDS011;30662;51.210;7.656;2023-05-10T12:47:01;19.33;;;14.85;;
44925;SDS011;30662;51.210;7.656;2023-05-10T12:49:27;20.80;;;16.00;;
44925;SDS011;30662;51.210;7.656;2023-05-10T12:51:53;18.90;;;15.40;;
44925;SDS011;30662;51.210;7.656;2023-05-10T12:54:21;18.13;;;14.25;;
44925;SDS011;30662;51.210;7.656;2023-05-10T12:56:47;19.55;;;14.30;;
44925;SDS011;30662;51.210;7.656;2023-05-10T12:59:13;40.95;;;15.68;;
44925;SDS011;30662;51.210;7.656;2023-05-10T13:01:39;21.77;;;15.00;;
44925;SDS011;30662;51.210;7.656;2023-05-10T13:04:05;20.63;;;13.68;;
44925;SDS011;30662;51.210;7.656;2023-05-10T13:06:31;20.05;;;13.80;;
44925;SDS011;30662;51.210;7.656;2023-05-10T13:08:57;18.90;;;13.65;;
44925;SDS011;30662;51.210;7.656;2023-05-10T13:11:23;20.55;;;13.32;;
44925;SDS011;30662;51.210;7.656;2023-05-10T13:13:49;16.20;;;12.68;;
44925;SDS011;30662;51.210;7.656;2023-05-10T13:16:15;17.60;;;13.20;;
44925;SDS011;30662;51.210;7.656;2023-05-10T13:18:41;19.55;;;12.38;;
44925;SDS011;30662;51.210;7.656;2023-05-10T13:21:07;17.80;;;12.70;;
44925;SDS011;30662;51.210;7.656;2023-05-10T13:23:33;23.10;;;14.32;;
44925;SDS011;30662;51.210;7.656;2023-05-10T13:25:59;15.30;;;12.25;;
44925;SDS011;30662;51.210;7.656;2023-05-10T13:28:25;17.48;;;12.63;;
44925;SDS011;30662;51.210;7.656;2023-05-10T13:30:51;15.32;;;12.43;;
44925;SDS011;30662;51.210;7.656;2023-05-10T13:33:17;18.40;;;12.65;;
44925;SDS011;30662;51.210;7.656;2023-05-10T13:35:43;18.02;;;13.85;;
44925;SDS011;30662;51.210;7.656;2023-05-10T13:38:09;22.00;;;13.82;;
44925;SDS011;30662;51.210;7.656;2023-05-10T13:40:36;17.77;;;13.77;;
44925;SDS011;30662;51.210;7.656;2023-05-10T13:43:02;18.02;;;14.15;;
44925;SDS011;30662;51.210;7.656;2023-05-10T13:45:28;18.08;;;13.43;;
44925;SDS011;30662;51.210;7.656;2023-05-10T13:47:53;15.82;;;13.48;;
44925;SDS011;30662;51.210;7.656;2023-05-10T13:50:19;16.80;;;13.38;;
44925;SDS011;30662;51.210;7.656;2023-05-10T13:52:45;16.80;;;12.98;;
44925;SDS011;30662;51.210;7.656;2023-05-10T13:55:12;17.83;;;13.88;;
44925;SDS011;30662;51.210;7.656;2023-05-10T13:57:38;15.23;;;12.65;;
44925;SDS011;30662;51.210;7.656;2023-05-10T14:00:04;21.73;;;13.85;;
44925;SDS011;30662;51.210;7.656;2023-05-10T14:02:31;16.85;;;12.23;;
44925;SDS011;30662;51.210;7.656;2023-05-10T14:04:57;16.40;;;12.63;;
44925;SDS011;30662;51.210;7.656;2023-05-10T14:07:23;15.35;;;11.77;;
44925;SDS011;30662;51.210;7.656;2023-05-10T14:09:49;17.92;;;12.43;;
44925;SDS011;30662;51.210;7.656;2023-05-10T14:12:14;16.42;;;11.20;;
44925;SDS011;30662;51.210;7.656;2023-05-10T14:14:40;16.23;;;11.90;;
44925;SDS011;30662;51.210;7.656;2023-05-10T14:17:06;14.32;;;11.43;;
44925;SDS011;30662;51.210;7.656;2023-05-10T14:19:35;15.13;;;12.20;;
44925;SDS011;30662;51.210;7.656;2023-05-10T14:22:01;14.50;;;11.70;;
44925;SDS011;30662;51.210;7.656;2023-05-10T14:24:27;17.73;;;12.50;;
44925;SDS011;30662;51.210;7.656;2023-05-10T14:26:53;13.43;;;12.02;;
44925;SDS011;30662;51.210;7.656;2023-05-10T14:29:22;14.18;;;10.35;;
44925;SDS011;30662;51.210;7.656;2023-05-10T14:31:48;14.45;;;11.35;;
44925;SDS011;30662;51.210;7.656;2023-05-10T14:34:15;17.52;;;12.20;;
44925;SDS011;30662;51.210;7.656;2023-05-10T14:36:41;13.80;;;11.25;;
44925;SDS011;30662;51.210;7.656;2023-05-10T14:39:07;14.65;;;11.95;;
44925;SDS011;30662;51.210;7.656;2023-05-10T14:41:33;13.90;;;12.07;;
44925;SDS011;30662;51.210;7.656;2023-05-10T14:43:59;13.93;;;11.43;;
44925;SDS011;30662;51.210;7.656;2023-05-10T14:46:25;14.35;;;11.88;;
44925;SDS011;30662;51.210;7.656;2023-05-10T14:48:51;16.95;;;11.13;;
44925;SDS011;30662;51.210;7.656;2023-05-10T14:51:17;16.63;;;12.15;;